Terminal Aerodrome Forecast
Issued by NWS Wichita, KS

Home | Current Version | Previous Version | Text Only | Print | Product List | Glossary Off
Versions: 1 2 3 4 5 6 7 8 9 10 11 12 13 14 15 16 17 18 19 20 21 22 23

000
FTUS43 KICT 301941 AAA
TAFICT
TAF AMD
KICT 301941Z 3020/0118 27015G23KT P6SM SCT035
     FM010100 30009KT P6SM SCT035
     FM011200 31009KT P6SM SCT015
     FM011600 32015G23KT P6SM SCT025=

USA.gov is the U.S. government's official web portal to all federal, state and local government web resources and services.